Time;durP1;ratioP1;P1;durP2;ratioP2;P2;SDS_P1;SDS_P2;PMS_P1;PMS_P2;Temp;Humidity;BMP_temperature;BMP_pressure;BME280_temperature;BME280_humidity;BME280_pressure;Samples;Min_cycle;Max_cycle;Signal;HPM_P1;HPM_P2
2023/12/23 00:00:52;;;;;;;16.83;2.03;;;;;;;;;;5000181;28;20049;-85
2023/12/23 00:03:20;;;;;;;22.33;2.47;;;;;;;;;;4997878;28;20375;-85
2023/12/23 00:05:47;;;;;;;17.75;2.50;;;;;;;;;;5013286;28;20049;-85
2023/12/23 00:08:14;;;;;;;17.65;2.72;;;;;;;;;;5013544;28;20081;-85
2023/12/23 00:10:41;;;;;;;21.25;3.60;;;;;;;;;;5015907;28;20045;-85
2023/12/23 00:13:08;;;;;;;16.80;2.67;;;;;;;;;;5016654;28;20052;-85
2023/12/23 00:15:34;;;;;;;22.52;3.47;;;;;;;;;;5016533;28;20048;-85
2023/12/23 00:18:01;;;;;;;17.27;2.20;;;;;;;;;;5015123;28;20479;-85
2023/12/23 00:20:29;;;;;;;22.23;2.17;;;;;;;;;;5016407;28;20119;-85
2023/12/23 00:22:56;;;;;;;24.30;3.17;;;;;;;;;;5017197;28;20415;-86
2023/12/23 00:25:23;;;;;;;20.15;2.55;;;;;;;;;;5006326;28;20055;-86
2023/12/23 00:27:50;;;;;;;25.42;2.85;;;;;;;;;;5014192;28;20046;-86
2023/12/23 00:30:17;;;;;;;22.67;2.70;;;;;;;;;;4997972;28;20045;-83
2023/12/23 00:32:45;;;;;;;23.27;3.33;;;;;;;;;;4998796;28;20064;-83
2023/12/23 00:35:12;;;;;;;21.67;2.20;;;;;;;;;;4997784;28;20151;-83
2023/12/23 00:37:39;;;;;;;16.05;2.63;;;;;;;;;;5015080;28;20049;-83
2023/12/23 00:40:07;;;;;;;21.75;2.67;;;;;;;;;;4997894;28;20060;-85
2023/12/23 00:42:34;;;;;;;17.35;2.30;;;;;;;;;;4998575;28;20041;-85
2023/12/23 00:45:01;;;;;;;17.38;1.90;;;;;;;;;;5014738;28;20052;-85
2023/12/23 00:47:27;;;;;;;17.10;2.08;;;;;;;;;;5014183;28;20069;-85
2023/12/23 00:50:01;;;;;;;21.70;3.30;;;;;;;;;;5014622;28;20042;-85
2023/12/23 00:52:29;;;;;;;12.68;1.60;;;;;;;;;;4998126;28;20372;-85
2023/12/23 00:54:55;;;;;;;16.60;2.40;;;;;;;;;;4998549;28;20391;-85
2023/12/23 00:57:22;;;;;;;15.18;2.40;;;;;;;;;;4997888;28;20092;-86
2023/12/23 00:59:49;;;;;;;16.73;1.67;;;;;;;;;;5014436;28;20033;-86
2023/12/23 01:02:16;;;;;;;9.45;1.38;;;;;;;;;;5014422;28;20465;-85
2023/12/23 01:04:43;;;;;;;15.18;2.00;;;;;;;;;;5017324;28;20120;-85
2023/12/23 01:07:10;;;;;;;16.85;2.30;;;;;;;;;;5017277;28;20075;-85
2023/12/23 01:09:37;;;;;;;21.45;1.65;;;;;;;;;;5017824;28;20483;-85
2023/12/23 01:12:05;;;;;;;18.35;2.28;;;;;;;;;;5016877;28;20045;-83
2023/12/23 01:14:32;;;;;;;19.27;2.13;;;;;;;;;;5018195;28;20480;-85
2023/12/23 01:16:59;;;;;;;14.57;1.80;;;;;;;;;;5017705;28;20288;-86
2023/12/23 01:19:26;;;;;;;17.70;2.22;;;;;;;;;;5017188;28;20041;-85
2023/12/23 01:21:53;;;;;;;15.05;1.65;;;;;;;;;;5017769;28;20067;-85
2023/12/23 01:24:19;;;;;;;20.65;2.00;;;;;;;;;;5017124;28;20361;-85
2023/12/23 01:26:46;;;;;;;15.02;1.95;;;;;;;;;;5017883;28;20045;-86
2023/12/23 01:29:13;;;;;;;15.45;1.98;;;;;;;;;;5017061;28;20049;-85
2023/12/23 01:31:40;;;;;;;16.05;1.63;;;;;;;;;;5018303;28;20116;-86
2023/12/23 01:34:07;;;;;;;17.65;2.08;;;;;;;;;;5018820;28;20043;-86
2023/12/23 01:36:34;;;;;;;19.20;2.42;;;;;;;;;;5021816;28;20044;-86
2023/12/23 01:39:01;;;;;;;22.88;2.15;;;;;;;;;;5024405;28;20055;-85
2023/12/23 01:41:28;;;;;;;17.23;1.92;;;;;;;;;;5020386;28;20041;-85
2023/12/23 01:43:55;;;;;;;18.90;1.83;;;;;;;;;;5021113;28;20091;-85
2023/12/23 01:46:22;;;;;;;13.77;1.85;;;;;;;;;;5036926;28;20041;-86
2023/12/23 01:48:50;;;;;;;20.38;3.15;;;;;;;;;;5037630;28;20037;-86
2023/12/23 01:51:17;;;;;;;17.88;2.20;;;;;;;;;;5020500;28;20072;-86
2023/12/23 01:53:44;;;;;;;27.77;1.98;;;;;;;;;;5021113;28;20060;-85
2023/12/23 01:56:11;;;;;;;18.02;2.03;;;;;;;;;;5036621;28;20037;-85
2023/12/23 01:58:39;;;;;;;18.93;2.27;;;;;;;;;;5020718;28;20107;-86
2023/12/23 02:01:06;;;;;;;21.02;2.13;;;;;;;;;;5020325;28;20044;-85
2023/12/23 02:03:34;;;;;;;17.85;1.80;;;;;;;;;;5020418;28;20420;-85
2023/12/23 02:06:02;;;;;;;16.90;2.33;;;;;;;;;;5021418;28;20051;-85
2023/12/23 02:08:29;;;;;;;20.05;2.53;;;;;;;;;;5020726;28;20140;-86
2023/12/23 02:11:05;;;;;;;14.82;1.95;;;;;;;;;;5020849;28;20557;-86
2023/12/23 02:13:50;;;;;;;19.85;2.15;;;;;;;;;;5020604;28;20048;-85
2023/12/23 02:16:16;;;;;;;15.05;1.80;;;;;;;;;;5020852;28;20045;-85
2023/12/23 02:18:45;;;;;;;13.30;1.90;;;;;;;;;;5021489;28;20099;-86
2023/12/23 02:21:12;;;;;;;18.23;1.88;;;;;;;;;;5015608;28;20125;-85
2023/12/23 02:23:39;;;;;;;19.95;2.35;;;;;;;;;;5020358;28;20491;-86
2023/12/23 02:26:10;;;;;;;18.05;1.52;;;;;;;;;;5021008;28;20091;-85
2023/12/23 02:28:38;;;;;;;23.75;2.03;;;;;;;;;;5020981;28;20045;-85
2023/12/23 02:31:06;;;;;;;16.40;1.77;;;;;;;;;;5019294;28;20179;-85
2023/12/23 02:33:33;;;;;;;14.07;1.97;;;;;;;;;;5021611;28;20150;-86
2023/12/23 02:36:00;;;;;;;16.23;1.98;;;;;;;;;;5020014;28;20283;-86
2023/12/23 02:38:27;;;;;;;13.93;1.52;;;;;;;;;;5020028;28;20087;-85
2023/12/23 02:40:54;;;;;;;14.65;1.75;;;;;;;;;;5020023;28;20075;-85
2023/12/23 02:43:21;;;;;;;18.05;2.20;;;;;;;;;;5019286;28;20048;-85
2023/12/23 02:45:48;;;;;;;9.85;1.50;;;;;;;;;;5020077;28;20485;-86
2023/12/23 02:48:15;;;;;;;11.52;1.40;;;;;;;;;;5019810;28;20387;-86
2023/12/23 02:50:42;;;;;;;10.82;1.38;;;;;;;;;;5020089;28;20479;-85
2023/12/23 02:53:09;;;;;;;11.65;1.50;;;;;;;;;;5020672;28;20059;-85
2023/12/23 02:55:36;;;;;;;12.98;1.45;;;;;;;;;;5019997;28;20048;-85
2023/12/23 02:58:04;;;;;;;15.88;1.92;;;;;;;;;;5020822;28;20041;-85
2023/12/23 03:00:30;;;;;;;15.95;2.00;;;;;;;;;;5019827;28;20052;-86
2023/12/23 03:02:57;;;;;;;18.17;2.00;;;;;;;;;;5019445;28;20480;-86
2023/12/23 03:05:24;;;;;;;19.92;1.55;;;;;;;;;;5018840;28;20052;-85
2023/12/23 03:07:52;;;;;;;15.35;1.92;;;;;;;;;;5019731;28;20080;-86
2023/12/23 03:10:19;;;;;;;9.45;1.75;;;;;;;;;;5015241;28;20220;-86
2023/12/23 03:12:45;;;;;;;9.85;1.40;;;;;;;;;;4999623;28;20057;-85
2023/12/23 03:15:13;;;;;;;13.68;1.58;;;;;;;;;;4999293;28;20061;-86
2023/12/23 03:17:40;;;;;;;10.50;1.90;;;;;;;;;;4999867;28;20037;-85
2023/12/23 03:20:08;;;;;;;13.02;1.65;;;;;;;;;;4999063;28;20099;-86
2023/12/23 03:22:35;;;;;;;12.98;2.33;;;;;;;;;;4999725;28;20538;-86
2023/12/23 03:25:03;;;;;;;13.07;1.42;;;;;;;;;;5012448;28;20059;-86
2023/12/23 03:27:30;;;;;;;6.43;1.45;;;;;;;;;;5015530;28;20168;-86
2023/12/23 03:29:56;;;;;;;12.05;1.60;;;;;;;;;;5015657;28;20069;-84
2023/12/23 03:32:24;;;;;;;6.22;1.40;;;;;;;;;;5014926;28;20041;-83
2023/12/23 03:34:51;;;;;;;7.88;1.85;;;;;;;;;;4999368;28;20113;-86
2023/12/23 03:37:17;;;;;;;7.70;1.70;;;;;;;;;;4998651;28;20132;-86
2023/12/23 03:39:45;;;;;;;10.15;1.90;;;;;;;;;;4999413;28;20038;-86
2023/12/23 03:42:11;;;;;;;12.20;2.10;;;;;;;;;;5015060;28;20041;-86
2023/12/23 03:44:38;;;;;;;11.18;2.40;;;;;;;;;;5015523;28;20049;-85
2023/12/23 03:47:05;;;;;;;10.20;2.03;;;;;;;;;;5014853;28;20038;-85
2023/12/23 03:49:32;;;;;;;11.85;2.42;;;;;;;;;;4999160;28;20048;-85
2023/12/23 03:51:59;;;;;;;11.68;2.20;;;;;;;;;;4998939;28;20051;-85
2023/12/23 03:54:26;;;;;;;10.90;2.38;;;;;;;;;;4998469;28;20061;-85
2023/12/23 03:56:53;;;;;;;21.40;2.60;;;;;;;;;;4998816;28;20197;-86
2023/12/23 03:59:19;;;;;;;12.73;2.85;;;;;;;;;;4998422;28;20042;-85
2023/12/23 04:01:47;;;;;;;11.45;1.88;;;;;;;;;;4998128;28;20503;-85
2023/12/23 04:04:13;;;;;;;10.23;1.80;;;;;;;;;;5001687;28;20377;-85
2023/12/23 04:06:40;;;;;;;14.63;1.80;;;;;;;;;;4998853;28;20050;-86
2023/12/23 04:09:09;;;;;;;15.82;2.22;;;;;;;;;;4998180;28;20041;-86
2023/12/23 04:11:36;;;;;;;;;;;;;;;;;;5018397;28;20050;-86
2023/12/23 04:14:03;;;;;;;9.68;1.80;;;;;;;;;;5018518;28;20301;-85
2023/12/23 04:16:30;;;;;;;12.40;1.85;;;;;;;;;;5034566;28;20041;-86
2023/12/23 04:18:57;;;;;;;7.50;1.70;;;;;;;;;;5018624;28;20037;-83
2023/12/23 04:21:24;;;;;;;7.40;1.70;;;;;;;;;;5018027;28;20045;-83
2023/12/23 04:23:51;;;;;;;9.88;1.52;;;;;;;;;;5018254;28;20045;-83
2023/12/23 04:26:18;;;;;;;6.95;1.25;;;;;;;;;;5017926;28;20707;-86
2023/12/23 04:28:45;;;;;;;8.77;1.60;;;;;;;;;;5018021;28;20488;-86
2023/12/23 04:31:12;;;;;;;10.00;1.27;;;;;;;;;;5001344;28;20075;-85
2023/12/23 04:33:39;;;;;;;11.80;1.60;;;;;;;;;;5034614;28;20509;-85
2023/12/23 04:36:06;;;;;;;10.05;1.60;;;;;;;;;;5034016;28;20049;-85
2023/12/23 04:38:35;;;;;;;8.80;1.42;;;;;;;;;;5018042;28;20095;-86
2023/12/23 04:41:02;;;;;;;9.80;1.48;;;;;;;;;;5018652;28;20044;-86
2023/12/23 04:43:30;;;;;;;13.15;1.75;;;;;;;;;;5017507;28;20055;-86
2023/12/23 04:45:57;;;;;;;13.38;1.80;;;;;;;;;;5018198;28;20410;-86
2023/12/23 04:48:25;;;;;;;14.00;1.75;;;;;;;;;;5017371;28;20060;-85
2023/12/23 04:50:52;;;;;;;16.30;1.92;;;;;;;;;;5018103;28;20049;-85
2023/12/23 04:53:21;;;;;;;8.52;1.52;;;;;;;;;;5017585;28;20049;-86
2023/12/23 04:55:49;;;;;;;14.20;1.65;;;;;;;;;;5018445;28;20530;-86
2023/12/23 04:58:16;;;;;;;13.30;1.67;;;;;;;;;;5017539;28;20037;-86
2023/12/23 05:00:43;;;;;;;10.10;1.60;;;;;;;;;;5034047;28;20045;-85
2023/12/23 05:03:10;;;;;;;14.10;2.10;;;;;;;;;;5017248;28;20068;-85
2023/12/23 05:05:38;;;;;;;8.77;1.55;;;;;;;;;;5017932;28;20494;-85
2023/12/23 05:08:06;;;;;;;14.90;2.15;;;;;;;;;;5016598;28;20125;-86
2023/12/23 05:10:32;;;;;;;12.65;1.80;;;;;;;;;;5016584;28;20045;-86
2023/12/23 05:12:59;;;;;;;10.27;1.63;;;;;;;;;;5020119;28;20396;-86
2023/12/23 05:15:26;;;;;;;12.85;1.63;;;;;;;;;;5020949;28;20081;-86
2023/12/23 05:17:53;;;;;;;12.18;1.98;;;;;;;;;;5021392;28;20135;-86
2023/12/23 05:20:20;;;;;;;6.80;1.30;;;;;;;;;;5020810;28;20037;-86
2023/12/23 05:22:47;;;;;;;12.65;1.83;;;;;;;;;;5021617;28;20037;-86
2023/12/23 05:25:15;;;;;;;8.63;1.60;;;;;;;;;;5021312;28;20053;-86
2023/12/23 05:27:42;;;;;;;14.35;1.95;;;;;;;;;;5021730;28;20044;-86
2023/12/23 05:30:09;;;;;;;10.88;1.90;;;;;;;;;;5036956;28;20527;-86
2023/12/23 05:32:36;;;;;;;6.60;1.30;;;;;;;;;;5022211;28;20041;-86
2023/12/23 05:35:04;;;;;;;11.50;1.92;;;;;;;;;;5021359;28;20095;-86
2023/12/23 05:37:31;;;;;;;5.90;2.13;;;;;;;;;;5020855;28;20140;-85
2023/12/23 05:39:58;;;;;;;13.27;1.63;;;;;;;;;;5021942;28;20112;-86
2023/12/23 05:42:25;;;;;;;6.70;1.10;;;;;;;;;;5024200;28;20037;-86
2023/12/23 05:44:52;;;;;;;7.70;1.65;;;;;;;;;;5029437;28;20365;-86
2023/12/23 05:47:19;;;;;;;6.85;1.58;;;;;;;;;;5027579;28;20387;-86
2023/12/23 05:49:46;;;;;;;5.72;1.23;;;;;;;;;;5021791;28;20467;-86
2023/12/23 05:52:13;;;;;;;12.10;1.50;;;;;;;;;;5020569;28;20160;-84
2023/12/23 05:54:40;;;;;;;4.03;0.90;;;;;;;;;;5020956;28;20068;-83
2023/12/23 05:57:06;;;;;;;6.20;1.17;;;;;;;;;;5020372;28;20045;-83
2023/12/23 05:59:33;;;;;;;5.10;0.88;;;;;;;;;;5020581;28;20476;-84
2023/12/23 06:02:00;;;;;;;5.03;0.70;;;;;;;;;;5020881;28;20052;-83
2023/12/23 06:04:27;;;;;;;3.92;0.70;;;;;;;;;;5036044;28;20041;-84
2023/12/23 06:06:54;;;;;;;5.07;1.10;;;;;;;;;;5020416;28;20056;-83
2023/12/23 06:09:21;;;;;;;6.10;1.23;;;;;;;;;;5019832;28;20037;-84
2023/12/23 06:11:48;;;;;;;6.20;1.40;;;;;;;;;;5020120;28;20037;-86
2023/12/23 06:14:15;;;;;;;7.20;1.20;;;;;;;;;;5036428;28;20048;-86
2023/12/23 06:16:42;;;;;;;8.23;1.65;;;;;;;;;;5020564;28;20049;-86
2023/12/23 06:19:09;;;;;;;4.10;1.67;;;;;;;;;;5019795;28;20041;-85
2023/12/23 06:21:36;;;;;;;7.15;1.42;;;;;;;;;;5020397;28;20464;-86
2023/12/23 06:24:03;;;;;;;6.82;1.35;;;;;;;;;;5019470;28;20057;-86
2023/12/23 06:26:30;;;;;;;4.13;1.05;;;;;;;;;;5036420;28;20128;-86
2023/12/23 06:28:57;;;;;;;5.85;1.17;;;;;;;;;;5020727;28;20056;-86
2023/12/23 06:31:24;;;;;;;5.68;1.35;;;;;;;;;;5019515;28;20091;-86
2023/12/23 06:33:51;;;;;;;8.80;1.20;;;;;;;;;;5020137;28;20052;-85
2023/12/23 06:36:18;;;;;;;5.53;1.50;;;;;;;;;;5019584;28;20029;-85
2023/12/23 06:38:44;;;;;;;12.35;1.65;;;;;;;;;;5020355;28;20144;-85
2023/12/23 06:41:12;;;;;;;9.30;2.33;;;;;;;;;;5019351;28;20053;-86
2023/12/23 06:43:39;;;;;;;7.88;1.73;;;;;;;;;;5019921;28;20037;-86
2023/12/23 06:46:18;;;;;;;6.72;1.52;;;;;;;;;;5021098;28;20044;-86
2023/12/23 06:48:45;;;;;;;7.95;1.50;;;;;;;;;;5020211;28;20395;-85
2023/12/23 06:51:12;;;;;;;8.32;1.60;;;;;;;;;;5019381;28;20045;-85
2023/12/23 06:53:39;;;;;;;8.90;2.10;;;;;;;;;;5019885;28;20060;-86
2023/12/23 06:56:06;;;;;;;10.80;1.95;;;;;;;;;;5018978;28;20045;-86
2023/12/23 06:58:33;;;;;;;5.45;1.50;;;;;;;;;;5019890;28;20569;-85
2023/12/23 07:01:04;;;;;;;8.48;1.90;;;;;;;;;;5019967;28;20060;-90
2023/12/23 07:03:31;;;;;;;9.60;2.70;;;;;;;;;;5004510;28;20119;-85
2023/12/23 07:05:58;;;;;;;7.78;1.50;;;;;;;;;;5018256;28;20044;-85
2023/12/23 07:08:26;;;;;;;10.07;1.70;;;;;;;;;;5033524;28;20037;-86
2023/12/23 07:10:52;;;;;;;9.98;3.65;;;;;;;;;;5013686;28;20045;-86
2023/12/23 07:13:19;;;;;;;7.05;1.50;;;;;;;;;;5010123;28;20068;-86
2023/12/23 07:15:46;;;;;;;5.75;1.30;;;;;;;;;;5014798;28;20041;-86
2023/12/23 07:18:13;;;;;;;5.45;2.00;;;;;;;;;;5016533;28;20456;-87
2023/12/23 07:20:42;;;;;;;11.45;1.70;;;;;;;;;;5013893;28;20042;-86
2023/12/23 07:23:09;;;;;;;9.02;2.13;;;;;;;;;;5011365;28;20423;-85
2023/12/23 07:25:36;;;;;;;9.77;2.10;;;;;;;;;;5031923;28;20488;-87
2023/12/23 07:28:03;;;;;;;10.30;2.30;;;;;;;;;;5012406;28;20041;-87
2023/12/23 07:30:31;;;;;;;9.77;2.25;;;;;;;;;;5012927;28;20114;-87
2023/12/23 07:32:58;;;;;;;8.95;2.08;;;;;;;;;;5011124;28;20061;-86
2023/12/23 07:35:35;;;;;;;8.52;1.40;;;;;;;;;;5008828;28;20056;-89
2023/12/23 07:38:04;;;;;;;5.82;1.25;;;;;;;;;;4996415;28;20041;-86
2023/12/23 07:40:32;;;;;;;8.23;1.50;;;;;;;;;;5012484;28;20044;-87
2023/12/23 07:43:02;;;;;;;9.23;1.17;;;;;;;;;;5013324;28;20046;-87
2023/12/23 07:45:29;;;;;;;4.45;1.02;;;;;;;;;;5006877;28;20045;-86
2023/12/23 07:47:56;;;;;;;4.43;0.90;;;;;;;;;;5013393;28;20044;-86
2023/12/23 07:50:23;;;;;;;9.60;1.00;;;;;;;;;;4999767;28;20044;-82
2023/12/23 07:52:50;;;;;;;5.03;1.00;;;;;;;;;;5001942;28;20298;-84
2023/12/23 07:55:18;;;;;;;6.32;0.70;;;;;;;;;;5002201;28;20044;-83
2023/12/23 07:57:47;;;;;;;5.40;0.90;;;;;;;;;;5006381;28;20060;-83
2023/12/23 08:00:15;;;;;;;8.93;2.17;;;;;;;;;;5008917;28;20041;-83
2023/12/23 08:02:42;;;;;;;4.25;1.10;;;;;;;;;;5012451;28;20044;-83
2023/12/23 08:05:10;;;;;;;4.07;1.00;;;;;;;;;;5004593;28;20038;-83
2023/12/23 08:07:42;;;;;;;6.53;1.20;;;;;;;;;;5001270;28;20034;-82
2023/12/23 08:10:09;;;;;;;6.22;0.85;;;;;;;;;;5010183;28;20508;-85
2023/12/23 08:12:36;;;;;;;5.20;0.80;;;;;;;;;;5000743;28;20046;-86
2023/12/23 08:15:03;;;;;;;5.03;1.38;;;;;;;;;;5000349;28;20412;-86
2023/12/23 08:17:30;;;;;;;4.72;0.70;;;;;;;;;;5008255;28;20052;-85
2023/12/23 08:19:57;;;;;;;5.85;2.03;;;;;;;;;;5003361;28;20133;-85
2023/12/23 08:22:23;;;;;;;6.25;1.67;;;;;;;;;;5012326;28;20037;-87
2023/12/23 08:24:50;;;;;;;4.20;0.80;;;;;;;;;;5006130;28;20145;-87
2023/12/23 08:27:17;;;;;;;3.97;0.60;;;;;;;;;;5008821;28;20037;-87
2023/12/23 08:29:46;;;;;;;3.67;0.90;;;;;;;;;;5007586;28;20388;-86
2023/12/23 08:32:13;;;;;;;5.43;0.80;;;;;;;;;;5013272;28;20033;-86
2023/12/23 08:34:40;;;;;;;5.80;0.63;;;;;;;;;;5009618;28;20419;-84
2023/12/23 08:37:07;;;;;;;9.27;2.30;;;;;;;;;;5001217;28;20946;-86
2023/12/23 08:39:33;;;;;;;10.23;1.67;;;;;;;;;;5004795;28;20038;-86
2023/12/23 08:42:00;;;;;;;4.03;0.80;;;;;;;;;;4998739;28;20046;-87
2023/12/23 08:44:27;;;;;;;5.07;0.82;;;;;;;;;;5007242;28;20053;-86
2023/12/23 08:46:54;;;;;;;7.03;0.98;;;;;;;;;;5009885;28;20046;-86
2023/12/23 08:49:21;;;;;;;4.45;0.90;;;;;;;;;;5010775;28;20397;-86
2023/12/23 08:51:48;;;;;;;4.80;1.00;;;;;;;;;;5012360;28;20060;-85
2023/12/23 08:54:15;;;;;;;7.30;0.80;;;;;;;;;;5011909;28;20046;-86
2023/12/23 08:56:42;;;;;;;7.93;1.63;;;;;;;;;;5014305;28;20490;-86
2023/12/23 08:59:09;;;;;;;9.00;0.95;;;;;;;;;;5014696;28;20053;-87
2023/12/23 09:01:36;;;;;;;4.70;1.08;;;;;;;;;;5011383;28;20042;-86
2023/12/23 09:04:05;;;;;;;4.60;0.80;;;;;;;;;;5015109;28;20050;-86
2023/12/23 09:06:32;;;;;;;4.18;0.70;;;;;;;;;;5016276;28;20397;-84
2023/12/23 09:08:59;;;;;;;4.03;0.85;;;;;;;;;;5013273;28;20073;-84
2023/12/23 09:11:26;;;;;;;4.80;0.85;;;;;;;;;;5014092;28;20096;-82
2023/12/23 09:13:53;;;;;;;3.15;0.70;;;;;;;;;;4997639;28;20046;-85
2023/12/23 09:16:20;;;;;;;5.60;2.15;;;;;;;;;;4996582;28;20058;-84
2023/12/23 09:18:46;;;;;;;3.78;0.60;;;;;;;;;;4996719;28;20053;-85
2023/12/23 09:21:13;;;;;;;6.75;1.67;;;;;;;;;;4996736;28;20068;-84
2023/12/23 09:23:40;;;;;;;2.15;0.60;;;;;;;;;;5018648;28;20046;-84
2023/12/23 09:26:07;;;;;;;4.75;0.50;;;;;;;;;;5015411;28;20123;-84
2023/12/23 09:28:34;;;;;;;3.47;1.50;;;;;;;;;;5017715;28;20099;-84
2023/12/23 09:31:01;;;;;;;5.25;0.43;;;;;;;;;;5016655;28;20046;-84
2023/12/23 09:33:28;;;;;;;4.60;0.80;;;;;;;;;;5033509;28;20041;-84
2023/12/23 09:35:55;;;;;;;4.32;0.70;;;;;;;;;;5014645;28;20054;-84
2023/12/23 09:38:22;;;;;;;5.18;1.33;;;;;;;;;;5017993;28;20053;-85
2023/12/23 09:40:49;;;;;;;5.18;0.55;;;;;;;;;;5022438;28;20405;-84
2023/12/23 09:43:18;;;;;;;3.92;0.80;;;;;;;;;;5015374;28;20054;-84
2023/12/23 09:45:46;;;;;;;3.75;0.80;;;;;;;;;;5014070;28;20053;-85
2023/12/23 09:48:16;;;;;;;4.32;1.20;;;;;;;;;;4997726;28;20042;-88
2023/12/23 09:50:43;;;;;;;8.32;0.95;;;;;;;;;;4998308;28;20474;-85
2023/12/23 09:53:13;;;;;;;8.55;1.10;;;;;;;;;;5002471;28;20046;-85
2023/12/23 09:55:40;;;;;;;3.97;0.77;;;;;;;;;;5012392;28;20465;-84
2023/12/23 09:58:07;;;;;;;5.88;0.95;;;;;;;;;;5012438;28;20061;-85
2023/12/23 10:00:35;;;;;;;6.30;0.75;;;;;;;;;;5008472;28;20412;-85
2023/12/23 10:03:04;;;;;;;8.15;1.17;;;;;;;;;;5007140;28;20048;-83
2023/12/23 10:05:31;;;;;;;7.35;1.10;;;;;;;;;;5014720;28;20045;-85
2023/12/23 10:07:59;;;;;;;6.93;1.00;;;;;;;;;;5014451;28;20543;-84
2023/12/23 10:10:26;;;;;;;7.55;1.10;;;;;;;;;;5014008;28;20046;-84
2023/12/23 10:12:54;;;;;;;9.52;1.10;;;;;;;;;;5013985;28;20045;-84
2023/12/23 10:15:21;;;;;;;5.47;0.90;;;;;;;;;;5013513;28;20148;-85
2023/12/23 10:17:48;;;;;;;5.63;1.27;;;;;;;;;;5013605;28;20099;-84
2023/12/23 10:20:15;;;;;;;3.50;0.77;;;;;;;;;;5013895;28;20133;-84
2023/12/23 10:22:44;;;;;;;6.70;1.10;;;;;;;;;;5012805;28;20129;-83
2023/12/23 10:25:12;;;;;;;12.82;3.60;;;;;;;;;;5012392;28;20427;-84
2023/12/23 10:27:43;;;;;;;6.88;1.13;;;;;;;;;;5011080;28;20041;-83
2023/12/23 10:30:11;;;;;;;5.05;0.90;;;;;;;;;;5011092;28;20077;-84
2023/12/23 10:32:39;;;;;;;;;;;;;;;;;;5012043;28;20544;-84
2023/12/23 10:35:07;;;;;;;9.02;1.38;;;;;;;;;;5001783;28;19936;-82
2023/12/23 10:37:40;;;;;;;8.13;1.17;;;;;;;;;;5016026;28;20508;-84
2023/12/23 10:40:16;;;;;;;8.57;1.58;;;;;;;;;;4998943;28;20036;-85
2023/12/23 10:42:45;;;;;;;6.85;1.25;;;;;;;;;;5005208;28;20132;-85
2023/12/23 10:45:12;;;;;;;4.13;1.17;;;;;;;;;;5013729;28;20068;-85
2023/12/23 10:47:39;;;;;;;7.53;1.00;;;;;;;;;;5015361;28;20033;-78
2023/12/23 10:50:08;;;;;;;8.20;1.10;;;;;;;;;;5030849;28;20076;-81
2023/12/23 10:52:36;;;;;;;;;;;;;;;;;;5032245;28;20357;-85
2023/12/23 10:55:04;;;;;;;10.80;1.93;;;;;;;;;;5014628;28;19921;-84
2023/12/23 10:57:32;;;;;;;7.43;1.02;;;;;;;;;;5014375;28;20276;-84
2023/12/23 10:59:58;;;;;;;8.18;1.00;;;;;;;;;;5014541;28;20045;-84
2023/12/23 11:02:29;;;;;;;9.75;1.25;;;;;;;;;;5010860;28;20046;-85
2023/12/23 11:04:59;;;;;;;7.30;1.42;;;;;;;;;;5002497;28;20049;-85
2023/12/23 11:07:30;;;;;;;9.65;1.20;;;;;;;;;;5012170;28;20044;-83
2023/12/23 11:10:01;;;;;;;5.55;0.90;;;;;;;;;;5025970;28;20068;-84
2023/12/23 11:12:29;;;;;;;7.68;1.10;;;;;;;;;;5006941;28;20433;-83
2023/12/23 11:14:59;;;;;;;5.97;0.90;;;;;;;;;;5025269;28;20049;-82
2023/12/23 11:17:28;;;;;;;3.47;0.75;;;;;;;;;;5013361;28;20132;-84
2023/12/23 11:19:56;;;;;;;8.85;1.00;;;;;;;;;;5013761;28;20484;-83
2023/12/23 11:22:24;;;;;;;4.60;0.70;;;;;;;;;;5024620;28;20476;-83
2023/12/23 11:24:51;;;;;;;6.82;0.93;;;;;;;;;;5009972;28;20058;-83
2023/12/23 11:27:37;;;;;;;4.13;0.90;;;;;;;;;;5008612;28;20046;-83
2023/12/23 11:30:05;;;;;;;2.25;0.38;;;;;;;;;;5018330;28;20046;-83
2023/12/23 11:32:38;;;;;;;4.55;0.77;;;;;;;;;;5015970;28;20042;-83
2023/12/23 11:35:09;;;;;;;2.92;0.50;;;;;;;;;;5018655;28;20140;-84
2023/12/23 11:37:57;;;;;;;4.50;0.95;;;;;;;;;;5019166;28;20041;-84
2023/12/23 11:40:25;;;;;;;4.37;0.87;;;;;;;;;;5012839;28;20121;-82
2023/12/23 11:42:52;;;;;;;5.13;0.57;;;;;;;;;;5011679;28;20103;-86
2023/12/23 11:45:20;;;;;;;5.50;0.70;;;;;;;;;;5008178;28;20030;-86
2023/12/23 11:47:49;;;;;;;3.50;0.77;;;;;;;;;;5006959;28;20129;-85
2023/12/23 11:50:16;;;;;;;2.30;0.47;;;;;;;;;;5012033;28;20137;-84
2023/12/23 11:52:44;;;;;;;5.78;0.50;;;;;;;;;;5008558;28;20125;-84
2023/12/23 11:55:12;;;;;;;4.25;0.50;;;;;;;;;;5012132;28;20376;-84
2023/12/23 11:57:39;;;;;;;4.30;0.45;;;;;;;;;;5028887;28;20317;-84
2023/12/23 12:00:07;;;;;;;2.05;0.50;;;;;;;;;;5009746;28;20046;-83
2023/12/23 12:02:33;;;;;;;4.22;0.52;;;;;;;;;;5020356;28;20153;-84
2023/12/23 12:05:01;;;;;;;4.50;0.50;;;;;;;;;;5000417;28;20039;-86
2023/12/23 12:07:29;;;;;;;3.25;0.40;;;;;;;;;;5013251;28;20058;-84
2023/12/23 12:09:56;;;;;;;3.80;0.80;;;;;;;;;;5006968;28;20038;-85
2023/12/23 12:12:23;;;;;;;1.63;0.40;;;;;;;;;;5006744;28;20132;-84
2023/12/23 12:14:49;;;;;;;1.92;0.50;;;;;;;;;;4998952;28;20542;-84
2023/12/23 12:17:18;;;;;;;3.15;0.68;;;;;;;;;;4990792;28;20046;-84
2023/12/23 12:19:45;;;;;;;3.60;0.98;;;;;;;;;;5012605;28;20045;-84
2023/12/23 12:22:12;;;;;;;1.85;1.15;;;;;;;;;;5011221;28;20124;-84
2023/12/23 12:24:41;;;;;;;3.60;0.57;;;;;;;;;;5012832;28;20057;-84
2023/12/23 12:27:08;;;;;;;2.72;0.70;;;;;;;;;;5004353;28;20046;-84
2023/12/23 12:29:35;;;;;;;9.27;4.97;;;;;;;;;;5001914;28;20049;-84
2023/12/23 12:32:03;;;;;;;6.38;0.85;;;;;;;;;;5007092;28;20049;-84
2023/12/23 12:34:29;;;;;;;4.30;0.60;;;;;;;;;;5005243;28;20053;-84
2023/12/23 12:36:57;;;;;;;4.47;0.80;;;;;;;;;;5013290;28;20053;-83
2023/12/23 12:39:25;;;;;;;9.00;1.08;;;;;;;;;;5009419;28;20062;-84
2023/12/23 12:41:53;;;;;;;4.32;1.05;;;;;;;;;;5006279;28;20050;-85
2023/12/23 12:44:21;;;;;;;7.05;1.25;;;;;;;;;;5002693;28;20045;-84
2023/12/23 12:46:54;;;;;;;7.70;1.63;;;;;;;;;;5010106;28;20065;-83
2023/12/23 12:49:23;;;;;;;8.55;1.08;;;;;;;;;;5006642;28;20062;-84
2023/12/23 12:51:51;;;;;;;7.75;1.60;;;;;;;;;;5011659;28;20327;-83
2023/12/23 12:54:24;;;;;;;8.80;1.45;;;;;;;;;;5019303;28;20077;-85
2023/12/23 12:56:51;;;;;;;10.05;1.70;;;;;;;;;;5016575;28;20052;-83
2023/12/23 12:59:18;;;;;;;7.32;2.17;;;;;;;;;;5028071;28;20056;-83
2023/12/23 13:01:45;;;;;;;11.52;1.60;;;;;;;;;;4997985;28;20469;-84
2023/12/23 13:04:12;;;;;;;7.65;1.70;;;;;;;;;;5005553;28;20053;-84
2023/12/23 13:06:38;;;;;;;11.10;2.40;;;;;;;;;;5010096;28;20058;-84
2023/12/23 13:09:05;;;;;;;4.82;1.30;;;;;;;;;;5010658;28;20045;-84
2023/12/23 13:11:32;;;;;;;3.10;0.70;;;;;;;;;;5010246;28;20044;-84
2023/12/23 13:13:59;;;;;;;4.60;0.63;;;;;;;;;;5009381;28;20046;-84
2023/12/23 13:16:27;;;;;;;3.13;0.75;;;;;;;;;;5008097;28;20493;-83
2023/12/23 13:18:54;;;;;;;4.20;1.17;;;;;;;;;;5009348;28;20050;-84
2023/12/23 13:21:27;;;;;;;3.10;1.08;;;;;;;;;;5007618;28;20121;-84
2023/12/23 13:23:54;;;;;;;6.45;1.05;;;;;;;;;;5002244;28;20038;-84
2023/12/23 13:26:21;;;;;;;5.15;1.10;;;;;;;;;;5004363;28;20057;-84
2023/12/23 13:28:48;;;;;;;3.92;0.90;;;;;;;;;;5036256;28;20121;-82
2023/12/23 13:31:19;;;;;;;4.22;0.47;;;;;;;;;;5020401;28;20042;-84
2023/12/23 13:33:46;;;;;;;2.85;0.70;;;;;;;;;;5042010;28;20046;-83
2023/12/23 13:36:13;;;;;;;3.25;0.93;;;;;;;;;;5013455;28;20079;-84
2023/12/23 13:38:44;;;;;;;5.75;0.75;;;;;;;;;;5020864;28;20053;-85
2023/12/23 13:41:15;;;;;;;3.47;0.70;;;;;;;;;;5004529;28;20046;-84
2023/12/23 13:43:42;;;;;;;7.68;1.35;;;;;;;;;;5010075;28;20121;-84
2023/12/23 13:46:09;;;;;;;5.70;0.80;;;;;;;;;;5002475;28;20053;-84
2023/12/23 13:48:36;;;;;;;7.95;1.52;;;;;;;;;;5041974;28;20041;-84
2023/12/23 13:51:04;;;;;;;7.78;1.77;;;;;;;;;;5011333;28;20091;-86
2023/12/23 13:53:32;;;;;;;8.68;1.48;;;;;;;;;;5017653;28;20041;-84
2023/12/23 13:55:59;;;;;;;7.07;1.30;;;;;;;;;;5018676;28;20116;-87
2023/12/23 13:58:26;;;;;;;7.45;1.95;;;;;;;;;;5005976;28;20049;-84
2023/12/23 14:00:54;;;;;;;7.65;1.08;;;;;;;;;;5040328;28;20125;-83
2023/12/23 14:03:20;;;;;;;9.38;1.30;;;;;;;;;;5010029;28;20046;-84
2023/12/23 14:05:48;;;;;;;8.65;1.30;;;;;;;;;;5010226;28;20037;-84
2023/12/23 14:08:15;;;;;;;12.65;1.67;;;;;;;;;;5020249;28;20075;-84
2023/12/23 14:10:44;;;;;;;5.57;1.08;;;;;;;;;;5010601;28;20045;-84
2023/12/23 14:13:15;;;;;;;11.10;2.17;;;;;;;;;;5016617;28;20480;-84
2023/12/23 14:15:45;;;;;;;9.98;1.92;;;;;;;;;;5012155;28;20461;-90
2023/12/23 14:18:12;;;;;;;9.25;1.42;;;;;;;;;;5026958;28;20048;-84
2023/12/23 14:20:39;;;;;;;12.45;1.42;;;;;;;;;;5011795;28;20049;-84
2023/12/23 14:23:06;;;;;;;14.43;1.38;;;;;;;;;;5008302;28;20049;-84
2023/12/23 14:25:34;;;;;;;12.98;1.90;;;;;;;;;;5016506;28;20370;-83
2023/12/23 14:28:01;;;;;;;8.20;1.58;;;;;;;;;;5026158;28;20046;-84
2023/12/23 14:30:28;;;;;;;9.25;1.02;;;;;;;;;;5009751;28;20136;-84
2023/12/23 14:32:55;;;;;;;11.40;1.30;;;;;;;;;;5004276;28;20048;-83
2023/12/23 14:35:22;;;;;;;9.80;1.10;;;;;;;;;;5019990;28;20041;-83
2023/12/23 14:37:49;;;;;;;6.30;0.90;;;;;;;;;;5021619;28;20040;-83
2023/12/23 14:40:18;;;;;;;7.20;1.50;;;;;;;;;;5019788;28;20048;-82